createdAt,value
2018-02-15T00:00:19.029Z,-6.52
2018-02-15T00:01:18.928Z,-6.46
2018-02-15T00:02:18.880Z,-6.62
2018-02-15T00:03:18.830Z,-6.55
2018-02-15T00:04:18.761Z,-6.62
2018-02-15T00:05:18.735Z,-6.76
2018-02-15T00:06:18.692Z,-6.89
2018-02-15T00:07:20.144Z,-6.77
2018-02-15T00:08:18.596Z,-6.79
2018-02-15T00:09:18.612Z,-6.76
2018-02-15T00:10:18.475Z,-6.82
2018-02-15T00:11:18.508Z,-6.84
2018-02-15T00:12:18.401Z,-6.83
2018-02-15T00:13:18.331Z,-6.63
2018-02-15T00:14:18.394Z,-6.59
2018-02-15T00:15:19.057Z,-6.40
2018-02-15T00:16:18.228Z,-5.92
2018-02-15T00:17:18.186Z,-5.76
2018-02-15T00:18:18.225Z,-5.72
2018-02-15T00:19:18.198Z,-5.57
2018-02-15T00:20:18.109Z,-5.66
2018-02-15T00:21:18.555Z,-5.25
2018-02-15T00:22:18.004Z,-5.14
2018-02-15T00:23:18.556Z,-5.26
2018-02-15T00:24:17.890Z,-5.19
2018-02-15T00:25:18.558Z,-5.35
2018-02-15T00:26:17.667Z,-5.47
2018-02-15T00:27:17.641Z,-5.55
2018-02-15T00:28:17.600Z,-5.59
2018-02-15T00:29:17.538Z,-5.66
2018-02-15T00:30:17.494Z,-5.59
2018-02-15T00:31:17.427Z,-5.64
2018-02-15T00:32:17.531Z,-5.68
2018-02-15T00:33:17.418Z,-5.27
2018-02-15T00:34:17.434Z,-4.78
2018-02-15T00:35:17.365Z,-4.74
2018-02-15T00:36:17.159Z,-4.35
2018-02-15T00:37:18.053Z,-3.94
2018-02-15T00:38:17.122Z,-3.90
2018-02-15T00:39:17.200Z,-3.59
2018-02-15T00:40:16.977Z,-3.48
2018-02-15T00:41:16.954Z,-3.78
2018-02-15T00:42:16.892Z,-4.03
2018-02-15T00:43:16.990Z,-3.99
2018-02-15T00:44:16.755Z,-4.10
2018-02-15T00:45:16.768Z,-3.91
2018-02-15T00:46:17.559Z,-3.79
2018-02-15T00:47:16.704Z,-4.04
2018-02-15T00:48:16.595Z,-3.91
2018-02-15T00:49:16.526Z,-3.60
2018-02-15T00:50:16.619Z,-3.79
2018-02-15T00:51:16.434Z,-3.79
2018-02-15T00:52:16.513Z,-3.72
2018-02-15T00:53:17.057Z,-3.91
2018-02-15T00:54:16.290Z,-3.75
2018-02-15T00:55:16.400Z,-3.57
2018-02-15T00:56:16.373Z,-3.59
2018-02-15T00:57:17.055Z,-3.60
2018-02-15T00:58:16.254Z,-3.60
2018-02-15T00:59:16.226Z,-3.97
2018-02-15T01:00:15.997Z,-4.22
2018-02-15T01:01:16.050Z,-4.32
2018-02-15T01:02:15.925Z,-4.42
2018-02-15T01:03:15.889Z,-4.53
2018-02-15T01:04:15.940Z,-4.43
2018-02-15T01:05:15.763Z,-4.46
2018-02-15T01:06:16.557Z,-4.43
2018-02-15T01:07:15.784Z,-4.40
2018-02-15T01:08:15.733Z,-4.39
2018-02-15T01:09:15.664Z,-4.35
2018-02-15T01:10:15.677Z,-4.10
2018-02-15T01:11:15.451Z,-4.25
2018-02-15T01:12:15.549Z,-4.47
2018-02-15T01:13:15.415Z,-4.47
2018-02-15T01:14:15.407Z,-4.56
2018-02-15T01:15:16.053Z,-4.60
2018-02-15T01:16:15.235Z,-4.58
2018-02-15T01:17:15.311Z,-4.75
2018-02-15T01:18:15.291Z,-5.00
2018-02-15T01:19:15.167Z,-5.06
2018-02-15T01:20:15.159Z,-5.19
2018-02-15T01:21:15.556Z,-5.30
2018-02-15T01:22:15.102Z,-5.43
2018-02-15T01:23:15.554Z,-5.48
2018-02-15T01:24:14.816Z,-5.66
2018-02-15T01:25:14.934Z,-5.55
2018-02-15T01:26:14.693Z,-5.47
2018-02-15T01:27:14.682Z,-5.33
2018-02-15T01:28:14.752Z,-5.19
2018-02-15T01:29:14.743Z,-5.25
2018-02-15T01:30:14.506Z,-5.29
2018-02-15T01:31:14.563Z,-5.19
2018-02-15T01:32:14.464Z,-5.19
2018-02-15T01:33:14.406Z,-5.33
2018-02-15T01:34:14.406Z,-5.30
2018-02-15T01:35:14.431Z,-5.36
2018-02-15T01:36:14.301Z,-5.51
2018-02-15T01:37:14.434Z,-5.71
2018-02-15T01:38:14.293Z,-5.68
2018-02-15T01:39:14.123Z,-5.84
2018-02-15T01:40:14.205Z,-6.05
2018-02-15T01:41:14.564Z,-6.18
2018-02-15T01:42:14.110Z,-6.32
2018-02-15T01:43:13.998Z,-6.36
2018-02-15T01:44:13.982Z,-6.36
2018-02-15T01:45:13.976Z,-6.46
2018-02-15T01:46:13.789Z,-6.42
2018-02-15T01:47:13.760Z,-6.46
2018-02-15T01:48:14.560Z,-6.26
2018-02-15T01:49:14.558Z,-6.26
2018-02-15T01:50:13.591Z,-6.19
2018-02-15T01:51:13.538Z,-6.19
2018-02-15T01:52:13.641Z,-6.10
2018-02-15T01:53:14.058Z,-6.19
2018-02-15T01:54:13.566Z,-5.93
2018-02-15T01:55:13.339Z,-5.94
2018-02-15T01:56:13.364Z,-5.83
2018-02-15T01:57:14.055Z,-5.74
2018-02-15T01:58:13.262Z,-5.76
2018-02-15T01:59:14.056Z,-5.80
2018-02-15T02:00:13.238Z,-5.50
2018-02-15T02:01:13.170Z,-5.51
2018-02-15T02:02:13.120Z,-5.23
2018-02-15T02:03:12.920Z,-5.30
2018-02-15T02:04:12.888Z,-5.32
2018-02-15T02:05:13.557Z,-5.26
2018-02-15T02:06:12.904Z,-5.06
2018-02-15T02:07:12.873Z,-5.06
2018-02-15T02:08:12.855Z,-4.93
2018-02-15T02:09:12.775Z,-4.90
2018-02-15T02:10:12.688Z,-5.03
2018-02-15T02:11:12.642Z,-5.36
2018-02-15T02:12:12.622Z,-5.47
2018-02-15T02:13:12.579Z,-5.39
2018-02-15T02:14:12.394Z,-5.39
2018-02-15T02:15:12.316Z,-5.51
2018-02-15T02:16:13.063Z,-5.68
2018-02-15T02:17:12.273Z,-5.54
2018-02-15T02:18:12.373Z,-5.47
2018-02-15T02:19:12.288Z,-5.50
2018-02-15T02:20:12.187Z,-5.43
2018-02-15T02:21:12.046Z,-5.65
2018-02-15T02:22:12.021Z,-5.71
2018-02-15T02:23:12.091Z,-5.61
2018-02-15T02:24:12.027Z,-5.80
2018-02-15T02:25:11.880Z,-5.62
2018-02-15T02:26:11.778Z,-5.82
2018-02-15T02:27:11.723Z,-5.80
2018-02-15T02:28:11.904Z,-5.84
2018-02-15T02:29:11.650Z,-6.04
2018-02-15T02:30:11.580Z,-6.00
2018-02-15T02:31:12.059Z,-5.76
2018-02-15T02:32:11.538Z,-5.50
2018-02-15T02:33:11.447Z,-5.46
2018-02-15T02:34:11.497Z,-5.39
2018-02-15T02:35:11.368Z,-5.48
2018-02-15T02:36:11.323Z,-5.43
2018-02-15T02:37:11.389Z,-5.43
2018-02-15T02:38:11.312Z,-5.50
2018-02-15T02:39:11.289Z,-5.39
2018-02-15T02:40:11.233Z,-5.53
2018-02-15T02:41:11.132Z,-5.55
2018-02-15T02:42:11.559Z,-5.68
2018-02-15T02:43:10.973Z,-5.72
2018-02-15T02:44:10.917Z,-5.71
2018-02-15T02:45:10.876Z,-5.79
2018-02-15T02:46:10.994Z,-5.97
2018-02-15T02:47:10.913Z,-6.03
2018-02-15T02:48:10.735Z,-6.05
2018-02-15T02:49:10.669Z,-6.13
2018-02-15T02:50:10.720Z,-6.08
2018-02-15T02:51:10.636Z,-5.94
2018-02-15T02:52:10.557Z,-5.76
2018-02-15T02:53:10.583Z,-5.65
2018-02-15T02:54:10.453Z,-5.53
2018-02-15T02:55:10.370Z,-5.54
2018-02-15T02:56:10.384Z,-5.55
2018-02-15T02:57:10.434Z,-5.69
2018-02-15T02:58:11.066Z,-5.71
2018-02-15T02:59:10.355Z,-5.84
2018-02-15T03:00:10.101Z,-5.82
2018-02-15T03:01:10.247Z,-5.83
2018-02-15T03:02:10.073Z,-5.83
2018-02-15T03:03:10.009Z,-5.86
2018-02-15T03:04:09.965Z,-6.01
2018-02-15T03:05:09.866Z,-5.84
2018-02-15T03:06:10.572Z,-5.83
2018-02-15T03:07:09.786Z,-5.61
2018-02-15T03:08:09.900Z,-5.55
2018-02-15T03:09:09.782Z,-5.69
2018-02-15T03:10:09.668Z,-5.53
2018-02-15T03:11:09.659Z,-5.53
2018-02-15T03:12:09.703Z,-5.48
2018-02-15T03:13:09.614Z,-5.44
2018-02-15T03:14:09.432Z,-5.43
2018-02-15T03:15:09.404Z,-5.26
2018-02-15T03:16:09.512Z,-5.32
2018-02-15T03:17:09.315Z,-5.13
2018-02-15T03:18:10.063Z,-5.08
2018-02-15T03:19:09.221Z,-5.04
2018-02-15T03:20:09.306Z,-4.97
2018-02-15T03:21:10.058Z,-4.89
2018-02-15T03:22:09.565Z,-4.90
2018-02-15T03:23:09.147Z,-4.95
2018-02-15T03:24:08.970Z,-5.08
2018-02-15T03:25:09.073Z,-5.04
2018-02-15T03:26:08.896Z,-5.06
2018-02-15T03:27:08.939Z,-4.99
2018-02-15T03:28:08.900Z,-4.92
2018-02-15T03:29:08.756Z,-4.89
2018-02-15T03:30:08.755Z,-5.06
2018-02-15T03:31:08.684Z,-5.04
2018-02-15T03:32:08.704Z,-5.14
2018-02-15T03:33:08.497Z,-5.27
2018-02-15T03:34:08.624Z,-5.50
2018-02-15T03:35:08.421Z,-5.44
2018-02-15T03:36:08.407Z,-5.36
2018-02-15T03:37:08.403Z,-5.48
2018-02-15T03:38:08.440Z,-5.47
2018-02-15T03:39:08.348Z,-5.51
2018-02-15T03:40:09.062Z,-5.44
2018-02-15T03:41:08.129Z,-5.06
2018-02-15T03:42:08.118Z,-4.96
2018-02-15T03:43:08.169Z,-5.04
2018-02-15T03:44:08.562Z,-5.10
2018-02-15T03:45:07.917Z,-5.00
2018-02-15T03:46:07.878Z,-4.71
2018-02-15T03:47:07.997Z,-4.74
2018-02-15T03:48:07.803Z,-4.56
2018-02-15T03:49:07.811Z,-4.57
2018-02-15T03:50:07.800Z,-4.68
2018-02-15T03:51:07.640Z,-4.50
2018-02-15T03:52:07.626Z,-4.60
2018-02-15T03:53:07.552Z,-4.61
2018-02-15T03:54:07.632Z,-4.65
2018-02-15T03:55:07.451Z,-4.58
2018-02-15T03:56:07.535Z,-4.75
2018-02-15T03:57:07.517Z,-4.77
2018-02-15T03:58:07.294Z,-4.57
2018-02-15T03:59:07.412Z,-4.47
2018-02-15T04:00:07.374Z,-4.61
2018-02-15T04:01:07.138Z,-4.68
2018-02-15T04:02:07.147Z,-4.60
2018-02-15T04:03:07.165Z,-4.53
2018-02-15T04:04:07.092Z,-4.61
2018-02-15T04:05:07.093Z,-4.77
2018-02-15T04:06:06.935Z,-4.78
2018-02-15T04:07:07.563Z,-4.60
2018-02-15T04:08:06.963Z,-4.60
2018-02-15T04:09:06.917Z,-4.40
2018-02-15T04:10:06.860Z,-4.46
2018-02-15T04:11:06.699Z,-4.38
2018-02-15T04:12:06.627Z,-4.39
2018-02-15T04:13:06.638Z,-4.38
2018-02-15T04:14:06.538Z,-4.40
2018-02-15T04:15:06.613Z,-4.49
2018-02-15T04:16:06.541Z,-4.36
2018-02-15T04:17:06.398Z,-4.33
2018-02-15T04:18:06.435Z,-4.11
2018-02-15T04:19:06.301Z,-4.14
2018-02-15T04:20:07.072Z,-4.07
2018-02-15T04:21:06.361Z,-4.11
2018-02-15T04:22:06.291Z,-3.94
2018-02-15T04:23:06.192Z,-3.86
2018-02-15T04:24:06.563Z,-3.76
2018-02-15T04:25:06.328Z,-3.83
2018-02-15T04:26:05.983Z,-3.71
2018-02-15T04:27:05.864Z,-3.83
2018-02-15T04:28:05.832Z,-3.96
2018-02-15T04:29:05.794Z,-3.76
2018-02-15T04:30:05.768Z,-3.71
2018-02-15T04:31:05.738Z,-3.78
2018-02-15T04:32:05.688Z,-3.72
2018-02-15T04:33:05.623Z,-3.64
2018-02-15T04:34:05.591Z,-3.64
2018-02-15T04:35:06.066Z,-3.66
2018-02-15T04:36:05.430Z,-3.49
2018-02-15T04:37:05.596Z,-3.12
2018-02-15T04:38:06.061Z,-3.28
2018-02-15T04:39:05.330Z,-3.15
2018-02-15T04:40:05.415Z,-3.21
2018-02-15T04:41:05.390Z,-2.71
2018-02-15T04:42:05.347Z,-2.48
2018-02-15T04:43:05.175Z,-2.26
2018-02-15T04:44:05.096Z,-2.29
2018-02-15T04:45:05.222Z,-2.20
2018-02-15T04:46:05.016Z,-2.26
2018-02-15T04:47:04.967Z,-2.13
2018-02-15T04:48:05.562Z,-1.82
2018-02-15T04:49:05.563Z,-2.00
2018-02-15T04:50:04.886Z,-2.00
2018-02-15T04:51:04.886Z,-1.94
2018-02-15T04:52:04.756Z,-2.02
2018-02-15T04:53:04.860Z,-2.03
2018-02-15T04:54:04.639Z,-1.97
2018-02-15T04:55:04.539Z,-2.00
2018-02-15T04:56:04.514Z,-2.12
2018-02-15T04:57:04.474Z,-2.09
2018-02-15T04:58:04.427Z,-2.16
2018-02-15T04:59:04.371Z,-2.27
2018-02-15T05:00:04.311Z,-2.24
2018-02-15T05:01:04.309Z,-2.29
2018-02-15T05:02:04.376Z,-2.32
2018-02-15T05:03:04.493Z,-2.37
2018-02-15T05:04:04.175Z,-2.52
2018-02-15T05:05:04.147Z,-2.56
2018-02-15T05:06:04.060Z,-1.98
2018-02-15T05:07:04.022Z,-1.79
2018-02-15T05:08:04.132Z,-1.76
2018-02-15T05:09:04.013Z,-1.77
2018-02-15T05:10:03.895Z,-1.74
2018-02-15T05:11:03.925Z,-1.51
2018-02-15T05:12:03.750Z,-1.45
2018-02-15T05:13:03.732Z,-1.40
2018-02-15T05:14:03.694Z,-1.23
2018-02-15T05:15:03.626Z,-1.27
2018-02-15T05:16:06.167Z,-1.34
2018-02-15T05:17:04.065Z,-1.22
2018-02-15T05:18:03.459Z,-1.34
2018-02-15T05:19:03.415Z,-1.16
2018-02-15T05:20:03.368Z,-1.19
2018-02-15T05:21:03.554Z,-1.10
2018-02-15T05:22:03.296Z,-1.07
2018-02-15T05:23:03.224Z,-1.13
2018-02-15T05:24:03.196Z,-1.09
2018-02-15T05:25:03.207Z,-1.09
2018-02-15T05:26:03.570Z,-1.10
2018-02-15T05:27:03.566Z,-1.15
2018-02-15T05:28:03.154Z,-0.95
2018-02-15T05:29:03.111Z,-0.85
2018-02-15T05:30:02.954Z,-0.97
2018-02-15T05:31:03.566Z,-1.07
2018-02-15T05:32:03.573Z,-1.19
2018-02-15T05:33:02.787Z,-1.12
2018-02-15T05:34:03.569Z,-1.12
2018-02-15T05:35:02.719Z,-1.12
2018-02-15T05:36:02.679Z,-1.05
2018-02-15T05:37:02.577Z,-1.10
2018-02-15T05:38:02.567Z,-1.09
2018-02-15T05:39:02.581Z,-1.16
2018-02-15T05:40:02.587Z,-1.17
2018-02-15T05:41:02.441Z,-1.23
2018-02-15T05:42:02.521Z,-1.20
2018-02-15T05:43:02.377Z,-1.25
2018-02-15T05:44:02.287Z,-1.07
2018-02-15T05:45:03.081Z,-1.02
2018-02-15T05:46:02.331Z,-1.07
2018-02-15T05:47:02.259Z,-0.85
2018-02-15T05:48:02.108Z,-0.82
2018-02-15T05:49:02.029Z,-0.89
2018-02-15T05:50:02.161Z,-0.83
2018-02-15T05:51:02.072Z,-0.85
2018-02-15T05:52:02.014Z,-0.91
2018-02-15T05:53:01.855Z,-0.82
2018-02-15T05:54:01.840Z,-0.83
2018-02-15T05:55:01.760Z,-0.80
2018-02-15T05:56:01.750Z,-0.79
2018-02-15T05:57:01.813Z,-0.82
2018-02-15T05:58:01.732Z,-0.83
2018-02-15T05:59:01.680Z,-0.85
2018-02-15T06:00:01.579Z,-0.83
2018-02-15T06:01:01.557Z,-0.85
2018-02-15T06:02:01.472Z,-0.83
2018-02-15T06:03:01.372Z,-0.85
2018-02-15T06:04:01.426Z,-0.80
2018-02-15T06:05:01.428Z,-0.82
2018-02-15T06:06:01.242Z,-0.79
2018-02-15T06:07:01.330Z,-0.83
2018-02-15T06:08:01.195Z,-0.75
2018-02-15T06:09:01.238Z,-0.80
2018-02-15T06:10:01.108Z,-0.67
2018-02-15T06:11:01.021Z,-0.69
2018-02-15T06:12:00.972Z,-0.60
2018-02-15T06:13:01.065Z,-0.61
2018-02-15T06:14:00.859Z,-0.65
2018-02-15T06:15:00.867Z,-0.64
2018-02-15T06:16:00.773Z,-0.67
2018-02-15T06:17:00.789Z,-0.79
2018-02-15T06:18:00.818Z,-0.82
2018-02-15T06:19:00.637Z,-0.85
2018-02-15T06:20:00.611Z,-0.70
2018-02-15T06:21:00.589Z,-0.58
2018-02-15T06:22:00.631Z,-0.69
2018-02-15T06:23:00.501Z,-0.73
2018-02-15T06:24:00.426Z,-0.82
2018-02-15T06:25:01.070Z,-0.78
2018-02-15T06:26:00.302Z,-0.75
2018-02-15T06:27:00.301Z,-0.61
2018-02-15T06:28:00.260Z,-0.65
2018-02-15T06:29:00.223Z,-0.58
2018-02-15T06:30:01.092Z,-0.60
2018-02-15T06:31:00.581Z,-0.58
2018-02-15T06:32:00.092Z,-0.54
2018-02-15T06:33:00.014Z,-0.60
2018-02-15T06:34:00.572Z,-0.60
2018-02-15T06:34:59.922Z,-0.57
2018-02-15T06:35:59.964Z,-0.69
2018-02-15T06:36:59.811Z,-0.65
2018-02-15T06:37:59.850Z,-0.60
2018-02-15T06:38:59.742Z,-0.60
2018-02-15T06:39:59.738Z,-0.72
2018-02-15T06:40:59.787Z,-0.83
2018-02-15T06:41:59.668Z,-0.82
2018-02-15T06:42:59.565Z,-0.80
2018-02-15T06:43:59.476Z,-0.78
2018-02-15T06:44:59.435Z,-0.80
2018-02-15T06:45:59.522Z,-0.82
2018-02-15T06:46:59.335Z,-0.72
2018-02-15T06:47:59.528Z,-0.62
2018-02-15T06:48:59.284Z,-0.62
2018-02-15T06:49:59.219Z,-0.64
2018-02-15T06:50:59.252Z,-0.73
2018-02-15T06:51:59.100Z,-0.75
2018-02-15T06:52:59.140Z,-0.67
2018-02-15T06:53:59.195Z,-0.64
2018-02-15T06:54:58.975Z,-0.60
2018-02-15T06:55:59.131Z,-0.58
2018-02-15T06:56:58.948Z,-0.54
2018-02-15T06:57:59.024Z,-0.52
2018-02-15T06:58:58.977Z,-0.51
2018-02-15T06:59:58.796Z,-0.58
2018-02-15T07:00:58.765Z,-0.47
2018-02-15T07:01:58.707Z,-0.47
2018-02-15T07:02:58.630Z,-0.39
2018-02-15T07:03:58.621Z,-0.37
2018-02-15T07:04:58.554Z,-0.34
2018-02-15T07:05:58.526Z,-0.39
2018-02-15T07:06:58.457Z,-0.42
2018-02-15T07:07:58.418Z,-0.39
2018-02-15T07:08:58.375Z,-0.42
2018-02-15T07:09:58.456Z,-0.40
2018-02-15T07:10:59.081Z,-0.39
2018-02-15T07:11:58.211Z,-0.43
2018-02-15T07:12:58.301Z,-0.47
2018-02-15T07:13:58.191Z,-0.42
2018-02-15T07:14:58.119Z,-0.43
2018-02-15T07:15:58.236Z,-0.42
2018-02-15T07:16:58.069Z,-0.31
2018-02-15T07:17:57.986Z,-0.42
2018-02-15T07:18:57.917Z,-0.36
2018-02-15T07:19:57.892Z,-0.31
2018-02-15T07:20:58.595Z,-0.36
2018-02-15T07:21:57.986Z,-0.28
2018-02-15T07:22:57.905Z,-0.26
2018-02-15T07:23:57.836Z,-0.25
2018-02-15T07:24:57.740Z,-0.22
2018-02-15T07:25:57.656Z,-0.22
2018-02-15T07:26:57.673Z,-0.14
2018-02-15T07:27:57.663Z,-0.01
2018-02-15T07:28:57.577Z,-0.10
2018-02-15T07:29:57.429Z,-0.04
2018-02-15T07:30:57.498Z,-0.01
2018-02-15T07:31:57.344Z,0.03
2018-02-15T07:32:57.352Z,0.02
2018-02-15T07:33:57.232Z,0.04
2018-02-15T07:34:57.350Z,0.03
2018-02-15T07:35:57.193Z,0.08
2018-02-15T07:36:57.169Z,0.03
2018-02-15T07:37:57.583Z,0.11
2018-02-15T07:38:57.180Z,0.21
2018-02-15T07:39:56.962Z,0.15
2018-02-15T07:40:57.581Z,0.23
2018-02-15T07:41:56.887Z,0.39
2018-02-15T07:42:56.831Z,0.32
2018-02-15T07:43:56.841Z,0.36
2018-02-15T07:44:57.580Z,0.38
2018-02-15T07:45:56.688Z,0.58
2018-02-15T07:46:56.664Z,0.42
2018-02-15T07:47:56.809Z,0.50
2018-02-15T07:48:56.629Z,0.57
2018-02-15T07:49:56.710Z,0.49
2018-02-15T07:50:56.516Z,0.57
2018-02-15T07:51:56.532Z,0.69
2018-02-15T07:52:56.380Z,0.65
2018-02-15T07:53:56.323Z,0.60
2018-02-15T07:54:56.404Z,0.72
2018-02-15T07:55:56.241Z,0.78
2018-02-15T07:56:56.350Z,0.69
2018-02-15T07:57:56.188Z,0.58
2018-02-15T07:58:56.321Z,0.57
2018-02-15T07:59:56.103Z,0.53
2018-02-15T08:00:56.580Z,0.75
2018-02-15T08:01:56.584Z,0.69
2018-02-15T08:02:56.070Z,0.79
2018-02-15T08:03:55.946Z,0.70
2018-02-15T08:04:55.831Z,0.86
2018-02-15T08:05:55.992Z,0.93
2018-02-15T08:06:55.754Z,0.86
2018-02-15T08:07:55.721Z,0.90
2018-02-15T08:08:55.775Z,1.00
2018-02-15T08:09:55.709Z,1.11
2018-02-15T08:10:55.759Z,0.80
2018-02-15T08:11:55.569Z,1.00
2018-02-15T08:12:55.626Z,0.96
2018-02-15T08:13:55.413Z,0.94
2018-02-15T08:14:55.560Z,1.04
2018-02-15T08:15:55.348Z,0.97
2018-02-15T08:16:55.356Z,1.05
2018-02-15T08:17:55.264Z,1.15
2018-02-15T08:18:55.277Z,1.29
2018-02-15T08:19:55.175Z,1.29
2018-02-15T08:20:55.122Z,1.29
2018-02-15T08:21:55.321Z,1.04
2018-02-15T08:22:55.110Z,1.40
2018-02-15T08:23:55.052Z,1.26
2018-02-15T08:24:55.077Z,1.23
2018-02-15T08:25:55.052Z,1.40
2018-02-15T08:26:55.063Z,1.48
2018-02-15T08:27:55.011Z,1.52
2018-02-15T08:28:55.588Z,1.50
2018-02-15T08:29:54.770Z,1.34
2018-02-15T08:30:54.702Z,1.41
2018-02-15T08:31:54.757Z,1.40
2018-02-15T08:32:54.614Z,1.02
2018-02-15T08:33:54.592Z,1.14
2018-02-15T08:34:54.617Z,1.11
2018-02-15T08:35:54.465Z,0.94
2018-02-15T08:36:54.468Z,0.96
2018-02-15T08:37:54.420Z,1.14
2018-02-15T08:38:55.087Z,1.12
2018-02-15T08:39:54.492Z,1.16
2018-02-15T08:40:54.344Z,0.98
2018-02-15T08:41:54.242Z,1.09
2018-02-15T08:42:54.173Z,1.37
2018-02-15T08:43:54.176Z,1.27
2018-02-15T08:44:54.273Z,1.29
2018-02-15T08:45:54.056Z,1.32
2018-02-15T08:46:54.001Z,1.36
2018-02-15T08:47:53.981Z,1.37
2018-02-15T08:48:53.884Z,1.48
2018-02-15T08:49:53.844Z,1.36
2018-02-15T08:50:53.877Z,1.44
2018-02-15T08:51:53.809Z,1.40
2018-02-15T08:52:53.749Z,1.40
2018-02-15T08:53:53.848Z,1.29
2018-02-15T08:54:53.765Z,1.40
2018-02-15T08:55:53.628Z,1.54
2018-02-15T08:56:53.583Z,1.55
2018-02-15T08:57:53.725Z,1.54
2018-02-15T08:58:53.575Z,1.52
2018-02-15T08:59:53.612Z,1.65
2018-02-15T09:00:53.380Z,1.42
2018-02-15T09:01:53.470Z,1.48
2018-02-15T09:02:53.341Z,1.60
2018-02-15T09:03:53.416Z,1.42
2018-02-15T09:04:53.229Z,1.54
2018-02-15T09:05:54.091Z,1.59
2018-02-15T09:06:53.238Z,1.63
2018-02-15T09:07:53.068Z,1.58
2018-02-15T09:08:53.592Z,1.54
2018-02-15T09:09:53.114Z,1.65
2018-02-15T09:10:52.993Z,1.58
2018-02-15T09:11:52.968Z,1.51
2018-02-15T09:12:52.919Z,1.62
2018-02-15T09:13:52.877Z,1.66
2018-02-15T09:14:53.600Z,1.66
2018-02-15T09:15:52.756Z,1.65
2018-02-15T09:16:53.592Z,1.62
2018-02-15T09:17:52.677Z,1.62
2018-02-15T09:18:52.658Z,1.79
2018-02-15T09:19:52.661Z,1.90
2018-02-15T09:20:52.678Z,1.70
2018-02-15T09:21:52.525Z,1.66
2018-02-15T09:22:52.476Z,1.81
2018-02-15T09:23:52.423Z,1.66
2018-02-15T09:24:52.547Z,1.66
2018-02-15T09:25:52.318Z,1.69
2018-02-15T09:26:52.411Z,1.60
2018-02-15T09:27:53.099Z,1.79
2018-02-15T09:28:52.234Z,1.88
2018-02-15T09:29:52.261Z,1.79
2018-02-15T09:30:52.239Z,1.76
2018-02-15T09:31:52.086Z,1.84
2018-02-15T09:32:52.041Z,1.83
2018-02-15T09:33:51.972Z,2.02
2018-02-15T09:34:52.003Z,2.18
2018-02-15T09:35:51.862Z,2.18
2018-02-15T09:36:51.947Z,2.02
2018-02-15T09:37:51.789Z,2.07
2018-02-15T09:38:51.900Z,2.20
2018-02-15T09:39:51.917Z,2.25
2018-02-15T09:40:51.786Z,2.39
2018-02-15T09:41:51.646Z,2.34
2018-02-15T09:42:51.637Z,2.35
2018-02-15T09:43:51.688Z,2.49
2018-02-15T09:44:51.565Z,2.49
2018-02-15T09:45:51.457Z,2.42
2018-02-15T09:46:51.489Z,2.56
2018-02-15T09:47:51.537Z,2.30
2018-02-15T09:48:51.491Z,2.54
2018-02-15T09:49:51.325Z,2.67
2018-02-15T09:50:51.358Z,2.42
2018-02-15T09:51:52.096Z,2.35
2018-02-15T09:52:51.241Z,2.49
2018-02-15T09:53:51.284Z,2.52
2018-02-15T09:54:51.159Z,2.64
2018-02-15T09:55:51.069Z,2.61
2018-02-15T09:56:51.076Z,2.46
2018-02-15T09:57:50.984Z,2.27
2018-02-15T09:58:51.087Z,2.60
2018-02-15T09:59:50.913Z,2.99
2018-02-15T10:00:50.803Z,2.85
2018-02-15T10:01:51.599Z,2.79
2018-02-15T10:02:50.791Z,2.54
2018-02-15T10:03:50.752Z,2.69
2018-02-15T10:04:50.677Z,2.53
2018-02-15T10:05:50.747Z,2.57
2018-02-15T10:06:50.581Z,2.54
2018-02-15T10:07:50.546Z,2.72
2018-02-15T10:08:50.510Z,2.82
2018-02-15T10:09:50.472Z,2.90
2018-02-15T10:10:50.501Z,2.77
2018-02-15T10:11:50.366Z,2.74
2018-02-15T10:12:50.356Z,2.54
2018-02-15T10:13:50.457Z,2.39
2018-02-15T10:14:50.245Z,2.34
2018-02-15T10:15:50.219Z,2.46
2018-02-15T10:16:50.165Z,2.60
2018-02-15T10:17:50.276Z,2.72
2018-02-15T10:18:50.217Z,2.90
2018-02-15T10:19:50.103Z,2.81
2018-02-15T10:20:49.973Z,2.90
2018-02-15T10:21:49.969Z,2.89
2018-02-15T10:22:50.043Z,2.63
2018-02-15T10:23:49.911Z,2.61
2018-02-15T10:24:49.856Z,3.11
2018-02-15T10:25:49.799Z,2.89
2018-02-15T10:26:49.792Z,2.49
2018-02-15T10:27:49.860Z,2.59
2018-02-15T10:28:49.670Z,2.75
2018-02-15T10:29:49.626Z,2.79
2018-02-15T10:30:49.632Z,3.18
2018-02-15T10:31:49.625Z,2.85
2018-02-15T10:32:49.534Z,2.74
2018-02-15T10:33:49.484Z,2.87
2018-02-15T10:34:49.401Z,3.02
2018-02-15T10:35:49.362Z,3.08
2018-02-15T10:36:49.307Z,2.96
2018-02-15T10:37:49.413Z,2.77
2018-02-15T10:38:49.257Z,3.10
2018-02-15T10:39:49.372Z,2.95
2018-02-15T10:40:49.326Z,3.10
2018-02-15T10:41:49.206Z,3.21
2018-02-15T10:42:49.135Z,3.33
2018-02-15T10:43:49.133Z,3.11
2018-02-15T10:44:48.973Z,3.21
2018-02-15T10:45:49.009Z,3.42
2018-02-15T10:46:48.932Z,3.51
2018-02-15T10:47:48.973Z,3.18
2018-02-15T10:48:48.830Z,3.21
2018-02-15T10:49:48.766Z,3.20
2018-02-15T10:50:49.609Z,3.15
2018-02-15T10:51:48.832Z,3.20
2018-02-15T10:52:48.698Z,3.32
2018-02-15T10:53:48.635Z,3.29
2018-02-15T10:54:48.603Z,3.21
2018-02-15T10:55:48.587Z,3.00
2018-02-15T10:56:48.669Z,2.82
2018-02-15T10:57:49.106Z,2.75
2018-02-15T10:58:48.455Z,3.17
2018-02-15T10:59:48.434Z,3.02
2018-02-15T11:00:48.319Z,2.82
2018-02-15T11:01:48.324Z,3.10
2018-02-15T11:02:48.291Z,3.23
2018-02-15T11:03:48.284Z,2.99
2018-02-15T11:04:48.156Z,3.14
2018-02-15T11:05:48.240Z,3.24
2018-02-15T11:06:48.109Z,3.21
2018-02-15T11:07:48.216Z,3.39
2018-02-15T11:08:47.994Z,3.23
2018-02-15T11:09:47.969Z,3.45
2018-02-15T11:10:47.940Z,3.31
2018-02-15T11:11:47.885Z,3.28
2018-02-15T11:12:47.834Z,3.39
2018-02-15T11:13:47.794Z,3.40
2018-02-15T11:14:47.740Z,3.29
2018-02-15T11:15:47.709Z,3.42
2018-02-15T11:16:47.722Z,3.43
2018-02-15T11:17:47.641Z,3.51
2018-02-15T11:18:47.621Z,3.57
2018-02-15T11:19:47.533Z,3.48
2018-02-15T11:20:47.540Z,3.43
2018-02-15T11:21:47.496Z,3.55
2018-02-15T11:22:47.440Z,3.20
2018-02-15T11:23:47.404Z,3.31
2018-02-15T11:24:47.488Z,3.33
2018-02-15T11:25:47.304Z,3.21
2018-02-15T11:26:47.279Z,3.21
2018-02-15T11:27:47.291Z,3.32
2018-02-15T11:28:47.304Z,3.26
2018-02-15T11:29:47.146Z,3.23
2018-02-15T11:30:47.118Z,3.11
2018-02-15T11:31:47.041Z,3.11
2018-02-15T11:32:47.179Z,3.08
2018-02-15T11:33:47.141Z,3.08
2018-02-15T11:34:46.959Z,3.17
2018-02-15T11:35:46.910Z,3.28
2018-02-15T11:36:46.835Z,3.28
2018-02-15T11:37:46.800Z,3.23
2018-02-15T11:38:46.749Z,3.17
2018-02-15T11:39:46.733Z,3.29
2018-02-15T11:40:46.930Z,3.45
2018-02-15T11:41:46.825Z,3.42
2018-02-15T11:42:47.126Z,3.52
2018-02-15T11:43:46.556Z,3.33
2018-02-15T11:44:46.537Z,3.31
2018-02-15T11:45:46.613Z,3.32
2018-02-15T11:46:46.450Z,3.18
2018-02-15T11:47:46.452Z,3.35
2018-02-15T11:48:46.552Z,3.31
2018-02-15T11:49:46.511Z,3.24
2018-02-15T11:50:46.304Z,3.26
2018-02-15T11:51:46.230Z,3.20
2018-02-15T11:52:46.187Z,3.32
2018-02-15T11:53:46.177Z,3.32
2018-02-15T11:54:46.112Z,3.42
2018-02-15T11:55:46.060Z,3.28
2018-02-15T11:56:46.037Z,3.40
2018-02-15T11:57:46.002Z,3.45
2018-02-15T11:58:45.970Z,3.40
2018-02-15T11:59:45.934Z,3.17
2018-02-15T12:00:45.921Z,3.18
2018-02-15T12:01:45.804Z,3.36
2018-02-15T12:02:45.764Z,3.35
2018-02-15T12:03:45.771Z,3.28
2018-02-15T12:04:45.746Z,3.24
2018-02-15T12:05:45.676Z,3.47
2018-02-15T12:06:45.599Z,3.48
2018-02-15T12:07:45.569Z,3.55
2018-02-15T12:08:45.550Z,3.39
2018-02-15T12:09:45.513Z,3.36
2018-02-15T12:10:45.468Z,3.29
2018-02-15T12:11:45.394Z,3.21
2018-02-15T12:12:45.364Z,3.24
2018-02-15T12:13:45.467Z,3.18
2018-02-15T12:14:45.267Z,3.23
2018-02-15T12:15:45.247Z,3.42
2018-02-15T12:16:46.123Z,3.42
2018-02-15T12:17:45.286Z,3.24
2018-02-15T12:18:45.283Z,3.29
2018-02-15T12:19:45.623Z,3.28
2018-02-15T12:20:45.073Z,3.26
2018-02-15T12:21:44.970Z,3.18
2018-02-15T12:22:44.944Z,3.31
2018-02-15T12:23:44.944Z,3.36
2018-02-15T12:24:45.627Z,3.20
2018-02-15T12:25:44.914Z,3.40
2018-02-15T12:26:44.763Z,3.40
2018-02-15T12:27:44.777Z,3.51
2018-02-15T12:28:44.754Z,3.54
2018-02-15T12:29:44.680Z,3.55
2018-02-15T12:30:44.672Z,3.54
2018-02-15T12:31:44.590Z,3.43
2018-02-15T12:32:44.558Z,3.40
2018-02-15T12:33:44.516Z,3.40
2018-02-15T12:34:44.635Z,3.42
2018-02-15T12:35:44.425Z,3.48
2018-02-15T12:36:44.370Z,3.45
2018-02-15T12:37:44.340Z,3.42
2018-02-15T12:38:44.293Z,3.70
2018-02-15T12:39:44.255Z,3.42
2018-02-15T12:40:44.219Z,3.57
2018-02-15T12:41:44.168Z,3.42
2018-02-15T12:42:44.141Z,3.58
2018-02-15T12:43:44.116Z,3.58
2018-02-15T12:44:44.092Z,3.43
2018-02-15T12:45:44.015Z,3.61
2018-02-15T12:46:44.162Z,3.43
2018-02-15T12:47:43.917Z,3.66
2018-02-15T12:48:43.879Z,3.62
2018-02-15T12:49:43.832Z,3.69
2018-02-15T12:50:43.836Z,3.61
2018-02-15T12:51:43.744Z,3.75
2018-02-15T12:52:43.804Z,3.73
2018-02-15T12:53:43.727Z,3.90
2018-02-15T12:54:43.628Z,3.86
2018-02-15T12:55:43.691Z,3.79
2018-02-15T12:56:43.554Z,3.76
2018-02-15T12:57:43.562Z,3.72
2018-02-15T12:58:43.501Z,3.40
2018-02-15T12:59:43.395Z,3.48
2018-02-15T13:00:43.361Z,3.45
2018-02-15T13:01:43.355Z,3.39
2018-02-15T13:02:43.277Z,3.43